Time;durP1;ratioP1;P1;durP2;ratioP2;P2;SDS_P1;SDS_P2;PMS_P1;PMS_P2;Temp;Humidity;BMP_temperature;BMP_pressure;BME280_temperature;BME280_humidity;BME280_pressure;Samples;Min_cycle;Max_cycle;Signal;HPM_P1;HPM_P2
2022/04/07 00:01:42;;;;;;;16.45;4.88;;;15.40;70.50;;;;;;4999213;28;20057;-75
2022/04/07 00:04:08;;;;;;;16.40;3.67;;;15.30;71.00;;;;;;4992139;28;20027;-76
2022/04/07 00:06:34;;;;;;;17.20;4.28;;;15.30;71.10;;;;;;4991744;28;20085;-74
2022/04/07 00:09:03;;;;;;;25.33;4.38;;;15.20;71.30;;;;;;4993083;28;20030;-75
2022/04/07 00:11:30;;;;;;;14.73;4.28;;;15.10;71.60;;;;;;4991424;28;20392;-74
2022/04/07 00:13:55;;;;;;;12.30;3.47;;;15.10;71.70;;;;;;4991964;28;20030;-76
2022/04/07 00:16:22;;;;;;;18.90;3.80;;;15.00;72.10;;;;;;4991768;28;20038;-76
2022/04/07 00:18:48;;;;;;;22.10;4.47;;;15.00;72.70;;;;;;4990221;28;20455;-73
2022/04/07 00:21:24;;;;;;;10.10;3.28;;;15.00;73.20;;;;;;4989900;28;20041;-76
2022/04/07 00:23:54;;;;;;;23.73;3.63;;;14.90;73.70;;;;;;4996336;28;20053;-73
2022/04/07 00:26:20;;;;;;;14.90;4.55;;;14.90;74.30;;;;;;5011068;28;20022;-73
2022/04/07 00:28:46;;;;;;;17.10;4.38;;;14.80;75.70;;;;;;5011140;28;20036;-72
2022/04/07 00:31:11;;;;;;;12.48;4.28;;;14.80;77.60;;;;;;5010746;28;20026;-74
2022/04/07 00:33:38;;;;;;;15.27;4.57;;;14.70;79.70;;;;;;5010647;28;20030;-73
2022/04/07 00:36:07;;;;;;;16.30;4.32;;;14.60;83.70;;;;;;5011183;28;20026;-76
2022/04/07 00:38:35;;;;;;;16.33;4.30;;;14.50;90.40;;;;;;5026169;28;20083;-74
2022/04/07 00:41:01;;;;;;;15.23;3.55;;;14.30;94.50;;;;;;5010242;28;20034;-73
2022/04/07 00:43:29;;;;;;;20.08;4.35;;;14.20;98.00;;;;;;5008761;28;20038;-74
2022/04/07 00:45:55;;;;;;;19.92;4.38;;;14.10;99.90;;;;;;5011110;28;20029;-75
2022/04/07 00:48:21;;;;;;;18.73;4.18;;;14.00;99.90;;;;;;5010601;28;20046;-76
2022/04/07 00:50:47;;;;;;;18.63;4.70;;;13.90;99.90;;;;;;5010816;28;20715;-76
2022/04/07 00:53:14;;;;;;;18.48;4.20;;;13.80;99.90;;;;;;5012840;28;20371;-74
2022/04/07 00:55:41;;;;;;;10.25;3.53;;;13.70;99.90;;;;;;5025589;28;20030;-77
2022/04/07 00:58:10;;;;;;;18.23;4.13;;;13.70;99.90;;;;;;5010799;28;20029;-71
2022/04/07 01:00:36;;;;;;;19.45;4.30;;;13.60;99.90;;;;;;5010474;28;20026;-76
2022/04/07 01:03:02;;;;;;;19.92;4.65;;;13.50;99.90;;;;;;4992882;28;20038;-76
2022/04/07 01:05:28;;;;;;;15.77;3.67;;;13.50;99.90;;;;;;5010746;28;20085;-75
2022/04/07 01:08:10;;;;;;;19.80;4.07;;;13.40;99.90;;;;;;5010864;28;20089;-75
2022/04/07 01:10:37;;;;;;;14.55;3.75;;;13.20;99.90;;;;;;5010602;28;20045;-76
2022/04/07 01:13:05;;;;;;;15.93;3.63;;;13.20;99.90;;;;;;5010467;28;20034;-76
2022/04/07 01:15:31;;;;;;;18.67;3.97;;;13.10;99.90;;;;;;5025899;28;20496;-74
2022/04/07 01:17:58;;;;;;;16.38;3.53;;;13.00;99.90;;;;;;5010459;28;20073;-76
2022/04/07 01:20:24;;;;;;;22.38;3.97;;;12.90;99.90;;;;;;5010069;28;20030;-75
2022/04/07 01:22:51;;;;;;;14.13;4.05;;;12.80;99.90;;;;;;4985696;28;20044;-71
2022/04/07 01:25:17;;;;;;;17.00;5.30;;;12.80;99.90;;;;;;5002226;28;20053;-72
2022/04/07 01:27:48;;;;;;;14.48;5.45;;;12.80;99.90;;;;;;5009595;28;20392;-71
2022/04/07 01:30:16;;;;;;;16.70;4.10;;;12.70;99.90;;;;;;5010506;28;20567;-73
2022/04/07 01:32:46;;;;;;;11.32;3.33;;;12.70;99.90;;;;;;5011611;28;20017;-75
2022/04/07 01:35:15;;;;;;;20.30;5.15;;;12.70;99.90;;;;;;5012093;28;20030;-75
2022/04/07 01:37:46;;;;;;;14.02;3.58;;;12.60;99.90;;;;;;5026761;28;20038;-72
2022/04/07 01:40:17;;;;;;;16.73;3.88;;;12.60;99.90;;;;;;5013808;28;20069;-75
2022/04/07 01:42:45;;;;;;;15.27;4.45;;;12.60;99.90;;;;;;5030601;28;20041;-74
2022/04/07 01:45:12;;;;;;;14.07;4.07;;;12.50;99.90;;;;;;5014085;28;20056;-73
2022/04/07 01:47:41;;;;;;;14.30;4.00;;;12.50;99.90;;;;;;5013823;28;20380;-73
2022/04/07 01:50:08;;;;;;;11.05;3.00;;;12.50;99.90;;;;;;5013623;28;20033;-73
2022/04/07 01:52:39;;;;;;;12.52;3.70;;;12.50;99.90;;;;;;5012753;28;20467;-73
2022/04/07 01:55:07;;;;;;;12.23;3.58;;;12.40;99.90;;;;;;5013214;28;20062;-73
2022/04/07 01:57:34;;;;;;;15.80;4.10;;;12.30;99.90;;;;;;5013621;28;20061;-75
2022/04/07 02:00:00;;;;;;;11.68;4.25;;;12.30;99.90;;;;;;5013414;28;20037;-75
2022/04/07 02:02:28;;;;;;;14.75;4.07;;;12.20;99.90;;;;;;5013433;28;20030;-73
2022/04/07 02:04:59;;;;;;;16.30;3.85;;;12.10;99.90;;;;;;5014096;28;20092;-73
2022/04/07 02:07:30;;;;;;;17.50;3.85;;;12.00;99.90;;;;;;5029052;28;20030;-73
2022/04/07 02:09:56;;;;;;;18.50;4.15;;;11.90;99.90;;;;;;5012921;28;20041;-68
2022/04/07 02:12:30;;;;;;;18.27;4.88;;;11.80;99.90;;;;;;5010831;28;20034;-73
2022/04/07 02:14:57;;;;;;;12.18;3.83;;;11.80;99.90;;;;;;4995493;28;20494;-74
2022/04/07 02:17:29;;;;;;;11.48;3.95;;;11.70;99.90;;;;;;5012939;28;20468;-73
2022/04/07 02:19:58;;;;;;;14.77;2.90;;;11.80;99.90;;;;;;5011758;28;20041;-74
2022/04/07 02:22:39;;;;;;;14.68;3.33;;;11.70;99.90;;;;;;5027610;28;20030;-73
2022/04/07 02:25:08;;;;;;;11.48;3.53;;;11.70;99.90;;;;;;5012189;28;20018;-74
2022/04/07 02:27:39;;;;;;;13.80;3.28;;;11.70;99.90;;;;;;5027653;28;20045;-73
2022/04/07 02:30:13;;;;;;;11.90;4.00;;;11.70;99.90;;;;;;5028335;28;20488;-77
2022/04/07 02:32:42;;;;;;;22.00;4.40;;;11.60;99.90;;;;;;4994128;28;20034;-76
2022/04/07 02:35:10;;;;;;;12.23;3.58;;;11.60;99.90;;;;;;5027604;28;20103;-73
2022/04/07 02:37:36;;;;;;;18.35;3.30;;;11.60;99.90;;;;;;5012537;28;20034;-73
2022/04/07 02:40:03;;;;;;;13.25;3.92;;;11.60;99.90;;;;;;5027232;28;20026;-75
2022/04/07 02:42:31;;;;;;;14.63;3.30;;;11.50;99.90;;;;;;5012453;28;20022;-74
2022/04/07 02:44:58;;;;;;;12.93;4.38;;;11.60;99.90;;;;;;5011226;28;20034;-74
2022/04/07 02:47:35;;;;;;;9.68;3.75;;;11.60;99.90;;;;;;5012525;28;20046;-74
2022/04/07 02:50:01;;;;;;;17.23;3.63;;;11.50;99.90;;;;;;5011794;28;20040;-71
2022/04/07 02:52:27;;;;;;;15.18;4.15;;;11.60;99.90;;;;;;5012247;28;20029;-74
2022/04/07 02:54:53;;;;;;;13.70;4.32;;;11.60;99.90;;;;;;5012092;28;20026;-73
2022/04/07 02:57:23;;;;;;;11.88;3.75;;;11.60;99.90;;;;;;4994478;28;20025;-73
2022/04/07 02:59:50;;;;;;;9.57;3.97;;;11.70;99.90;;;;;;5010725;28;20056;-75
2022/04/07 03:02:16;;;;;;;18.90;3.50;;;11.50;99.90;;;;;;5012070;28;20022;-74
2022/04/07 03:04:44;;;;;;;14.98;3.30;;;11.70;99.90;;;;;;5011984;28;20399;-73
2022/04/07 03:07:10;;;;;;;9.35;3.55;;;11.70;99.90;;;;;;5027520;28;20049;-74
2022/04/07 03:09:37;;;;;;;16.63;4.03;;;11.70;99.90;;;;;;5011428;28;20068;-74
2022/04/07 03:12:03;;;;;;;10.73;3.95;;;11.70;99.90;;;;;;5027189;28;20033;-74
2022/04/07 03:14:29;;;;;;;10.90;3.55;;;11.80;99.90;;;;;;4994512;28;20097;-75
2022/04/07 03:16:55;;;;;;;10.57;4.57;;;11.80;99.90;;;;;;5010406;28;20121;-75
2022/04/07 03:19:22;;;;;;;15.35;4.88;;;11.80;99.90;;;;;;5011276;28;20113;-74
2022/04/07 03:21:48;;;;;;;10.60;3.75;;;11.90;99.90;;;;;;5026888;28;20053;-73
2022/04/07 03:24:14;;;;;;;12.07;3.30;;;12.00;99.90;;;;;;5011615;28;20707;-75
2022/04/07 03:26:40;;;;;;;12.05;4.47;;;11.90;99.90;;;;;;5010103;28;20050;-75
2022/04/07 03:29:06;;;;;;;17.27;6.43;;;12.00;99.90;;;;;;5009824;28;20104;-73
2022/04/07 03:31:32;;;;;;;10.13;3.88;;;11.90;99.90;;;;;;5011842;28;20113;-74
2022/04/07 03:33:59;;;;;;;12.10;4.78;;;11.80;99.90;;;;;;5010223;28;20041;-75
2022/04/07 03:36:25;;;;;;;14.85;4.25;;;11.90;99.90;;;;;;5026927;28;20105;-74
2022/04/07 03:38:51;;;;;;;12.93;4.40;;;11.90;99.90;;;;;;5010148;28;20048;-74
2022/04/07 03:41:20;;;;;;;17.10;4.25;;;11.90;99.90;;;;;;5026122;28;20030;-75
2022/04/07 03:43:46;;;;;;;16.45;4.97;;;12.00;99.90;;;;;;5011314;28;20052;-73
2022/04/07 03:46:16;;;;;;;10.85;3.60;;;12.00;99.90;;;;;;5010827;28;20026;-75
2022/04/07 03:48:42;;;;;;;14.70;4.32;;;11.90;99.90;;;;;;5026339;28;20057;-73
2022/04/07 03:51:07;;;;;;;10.10;3.80;;;11.90;99.90;;;;;;5010788;28;20049;-71
2022/04/07 03:53:33;;;;;;;15.30;4.03;;;11.70;99.90;;;;;;5010914;28;20503;-74
2022/04/07 03:55:59;;;;;;;9.15;3.35;;;11.50;99.90;;;;;;5011342;28;20052;-75
2022/04/07 03:58:26;;;;;;;13.13;4.82;;;11.40;99.90;;;;;;5011503;28;20037;-77
2022/04/07 04:00:52;;;;;;;13.18;5.32;;;11.30;99.90;;;;;;5011405;28;20099;-75
2022/04/07 04:03:21;;;;;;;10.80;4.88;;;11.30;99.90;;;;;;5009460;28;20116;-74
2022/04/07 04:05:47;;;;;;;18.77;5.38;;;11.30;99.90;;;;;;5006436;28;20504;-73
2022/04/07 04:08:13;;;;;;;9.10;3.92;;;11.20;99.90;;;;;;5009916;28;20029;-73
2022/04/07 04:10:39;;;;;;;15.02;4.88;;;11.20;99.90;;;;;;5008856;28;20104;-74
2022/04/07 04:13:08;;;;;;;16.92;5.95;;;11.10;99.90;;;;;;5010995;28;20054;-73
2022/04/07 04:15:34;;;;;;;11.93;4.38;;;11.10;99.90;;;;;;5026032;28;20022;-74
2022/04/07 04:18:00;;;;;;;13.50;4.90;;;11.20;99.90;;;;;;5010214;28;20088;-75
2022/04/07 04:20:26;;;;;;;11.40;3.63;;;11.10;99.90;;;;;;5010309;28;20357;-75
2022/04/07 04:22:52;;;;;;;13.32;3.55;;;11.00;99.90;;;;;;5010657;28;20038;-75
2022/04/07 04:25:19;;;;;;;15.85;4.28;;;11.00;99.90;;;;;;5010428;28;20029;-76
2022/04/07 04:27:45;;;;;;;11.52;3.83;;;11.00;99.90;;;;;;5026332;28;20396;-76
2022/04/07 04:30:13;;;;;;;10.55;4.05;;;10.90;99.90;;;;;;5011576;28;20022;-75
2022/04/07 04:32:41;;;;;;;8.75;3.10;;;10.90;99.90;;;;;;5010565;28;20464;-74
2022/04/07 04:35:08;;;;;;;12.00;4.70;;;11.00;99.90;;;;;;5010302;28;20022;-76
2022/04/07 04:37:34;;;;;;;9.60;3.15;;;11.00;99.90;;;;;;5010743;28;20022;-76
2022/04/07 04:40:00;;;;;;;13.52;4.60;;;11.00;99.90;;;;;;5010842;28;20467;-77
2022/04/07 04:42:25;;;;;;;17.63;9.50;;;11.00;99.90;;;;;;4999416;28;20388;-78
2022/04/07 04:44:51;;;;;;;14.13;6.28;;;10.90;99.90;;;;;;4991014;28;20022;-79
2022/04/07 04:47:18;;;;;;;9.93;4.82;;;11.00;99.90;;;;;;4990867;28;20104;-76
2022/04/07 04:49:44;;;;;;;34.03;15.90;;;11.00;99.90;;;;;;5010371;28;20032;-77
2022/04/07 04:52:11;;;;;;;19.75;8.00;;;11.00;99.90;;;;;;5010303;28;20042;-75
2022/04/07 04:54:37;;;;;;;12.65;6.45;;;10.90;99.90;;;;;;5009933;28;20026;-73
2022/04/07 04:57:03;;;;;;;13.25;4.20;;;10.90;99.90;;;;;;5010688;28;20408;-76
2022/04/07 04:59:30;;;;;;;15.65;4.13;;;10.90;99.90;;;;;;5009418;28;20517;-74
2022/04/07 05:01:56;;;;;;;14.15;4.15;;;10.90;99.90;;;;;;5010288;28;20022;-77
2022/04/07 05:04:23;;;;;;;13.15;4.50;;;10.90;99.90;;;;;;5010447;28;20019;-77
2022/04/07 05:06:49;;;;;;;15.05;5.70;;;10.90;99.90;;;;;;5012273;28;20391;-76
2022/04/07 05:09:15;;;;;;;12.05;5.03;;;10.90;99.90;;;;;;5016677;28;20092;-74
2022/04/07 05:11:41;;;;;;;12.68;3.88;;;10.90;99.90;;;;;;5016400;28;20026;-76
2022/04/07 05:14:09;;;;;;;16.70;4.75;;;10.90;99.90;;;;;;5013447;28;20069;-76
2022/04/07 05:16:35;;;;;;;13.00;4.38;;;10.90;99.90;;;;;;5029318;28;20037;-76
2022/04/07 05:19:01;;;;;;;11.98;3.80;;;11.00;99.90;;;;;;5029103;28;20069;-75
2022/04/07 05:21:27;;;;;;;10.88;3.53;;;11.00;99.90;;;;;;5013528;28;20083;-76
2022/04/07 05:23:53;;;;;;;11.20;3.70;;;11.10;99.90;;;;;;5029516;28;20124;-75
2022/04/07 05:26:19;;;;;;;9.20;3.80;;;11.10;99.90;;;;;;5012023;28;20045;-76
2022/04/07 05:28:45;;;;;;;14.40;4.85;;;11.20;99.90;;;;;;5028983;28;20029;-75
2022/04/07 05:31:12;;;;;;;18.17;5.15;;;11.20;99.90;;;;;;5014360;28;20041;-76
2022/04/07 05:33:40;;;;;;;12.98;6.25;;;11.20;99.90;;;;;;5029286;28;20018;-76
2022/04/07 05:36:06;;;;;;;20.15;7.97;;;11.20;99.90;;;;;;5014945;28;20034;-75
2022/04/07 05:38:32;;;;;;;11.07;4.55;;;11.10;99.90;;;;;;5013722;28;20030;-76
2022/04/07 05:40:58;;;;;;;12.73;4.60;;;11.20;99.90;;;;;;5028972;28;20491;-75
2022/04/07 05:43:24;;;;;;;18.80;6.32;;;11.10;99.90;;;;;;5015272;28;20553;-76
2022/04/07 05:45:52;;;;;;;14.68;5.25;;;11.10;99.90;;;;;;5018087;28;20030;-76
2022/04/07 05:48:18;;;;;;;16.30;5.88;;;11.10;99.90;;;;;;5013044;28;20048;-75
2022/04/07 05:50:44;;;;;;;17.58;6.45;;;11.20;99.90;;;;;;5013421;28;20165;-78
2022/04/07 05:53:13;;;;;;;15.27;5.85;;;11.20;99.90;;;;;;5012035;28;20092;-74
2022/04/07 05:55:40;;;;;;;15.30;5.32;;;11.20;99.90;;;;;;5028640;28;20199;-68
2022/04/07 05:58:08;;;;;;;14.05;4.80;;;11.20;99.90;;;;;;5010868;28;20468;-72
2022/04/07 06:00:37;;;;;;;9.15;3.60;;;11.30;99.90;;;;;;5016860;28;20034;-77
2022/04/07 06:03:03;;;;;;;13.90;4.75;;;11.40;99.90;;;;;;5028397;28;20032;-76
2022/04/07 06:05:29;;;;;;;10.60;5.32;;;11.50;99.90;;;;;;5013066;28;20042;-77
2022/04/07 06:08:00;;;;;;;14.52;5.05;;;11.40;99.90;;;;;;5013342;28;20053;-77
2022/04/07 06:10:26;;;;;;;15.68;5.97;;;11.40;99.90;;;;;;5011714;28;20089;-77
2022/04/07 06:12:52;;;;;;;14.40;7.10;;;11.40;99.90;;;;;;5014316;28;20113;-78
2022/04/07 06:15:19;;;;;;;17.42;7.32;;;11.50;99.90;;;;;;5012708;28;20129;-78
2022/04/07 06:17:45;;;;;;;13.68;5.82;;;11.60;99.90;;;;;;5028303;28;20084;-78
2022/04/07 06:20:12;;;;;;;18.60;6.03;;;11.70;99.90;;;;;;5012911;28;20045;-77
2022/04/07 06:22:39;;;;;;;10.13;5.07;;;11.80;99.90;;;;;;5013009;28;20034;-78
2022/04/07 06:25:06;;;;;;;12.20;4.60;;;11.90;99.90;;;;;;5012521;28;20443;-77
2022/04/07 06:27:36;;;;;;;8.80;3.75;;;12.00;99.90;;;;;;5013867;28;20030;-76
2022/04/07 06:30:04;;;;;;;8.43;3.97;;;12.00;99.90;;;;;;5013283;28;20388;-73
2022/04/07 06:32:30;;;;;;;12.40;5.80;;;12.10;99.90;;;;;;5008904;28;20026;-77
2022/04/07 06:34:56;;;;;;;9.85;4.57;;;12.10;99.90;;;;;;5012955;28;20512;-76
2022/04/07 06:37:22;;;;;;;12.63;4.93;;;12.20;99.90;;;;;;5011641;28;20468;-78
2022/04/07 06:39:48;;;;;;;13.05;4.32;;;12.30;99.90;;;;;;5009870;28;20038;-77
2022/04/07 06:42:15;;;;;;;10.38;3.30;;;12.30;99.90;;;;;;5011111;28;20040;-77
2022/04/07 06:44:42;;;;;;;7.43;3.47;;;12.30;99.90;;;;;;5011667;28;20427;-77
2022/04/07 06:47:08;;;;;;;9.43;3.60;;;12.30;99.90;;;;;;5012371;28;20446;-74
2022/04/07 06:49:34;;;;;;;9.82;4.53;;;12.30;99.90;;;;;;4999470;28;20116;-76
2022/04/07 06:51:59;;;;;;;8.93;3.45;;;12.30;99.90;;;;;;5011558;28;20026;-76
2022/04/07 06:54:26;;;;;;;10.35;4.03;;;12.10;99.90;;;;;;5011909;28;20476;-74
2022/04/07 06:56:51;;;;;;;9.52;3.22;;;12.10;99.90;;;;;;4996091;28;20018;-77
2022/04/07 06:59:17;;;;;;;9.32;4.32;;;12.20;99.90;;;;;;5005545;28;20048;-75
2022/04/07 07:01:43;;;;;;;12.63;4.07;;;12.20;99.90;;;;;;5011086;28;20026;-77
2022/04/07 07:04:10;;;;;;;13.25;4.95;;;12.30;99.90;;;;;;5027080;28;20034;-74
2022/04/07 07:06:36;;;;;;;11.25;4.30;;;12.40;99.90;;;;;;4992704;28;20632;-76
2022/04/07 07:09:01;;;;;;;11.40;4.70;;;12.50;99.90;;;;;;5010448;28;20042;-79
2022/04/07 07:11:27;;;;;;;9.75;4.07;;;12.50;99.90;;;;;;5012092;28;20116;-79
2022/04/07 07:13:53;;;;;;;10.07;4.00;;;12.50;99.90;;;;;;5005762;28;20041;-75
2022/04/07 07:16:19;;;;;;;10.63;4.07;;;12.40;99.90;;;;;;5008787;28;20360;-79
2022/04/07 07:18:51;;;;;;;10.88;5.10;;;12.30;99.90;;;;;;5025715;28;20514;-80
2022/04/07 07:21:17;;;;;;;11.50;3.75;;;12.30;99.90;;;;;;5029421;28;20030;-79
2022/04/07 07:23:44;;;;;;;12.93;3.35;;;12.30;99.90;;;;;;5025963;28;20064;-79
2022/04/07 07:26:11;;;;;;;8.60;4.00;;;12.20;99.90;;;;;;5026656;28;20471;-80
2022/04/07 07:28:37;;;;;;;12.27;4.20;;;12.20;99.90;;;;;;5010039;28;20745;-80
2022/04/07 07:31:07;;;;;;;9.10;4.03;;;12.10;99.90;;;;;;5010368;28;20026;-80
2022/04/07 07:33:34;;;;;;;9.38;4.18;;;12.10;99.90;;;;;;5008368;28;20040;-79
2022/04/07 07:36:00;;;;;;;10.13;4.60;;;12.10;99.90;;;;;;5000706;28;20021;-78
2022/04/07 07:38:29;;;;;;;10.35;4.38;;;12.20;99.90;;;;;;5002180;28;20049;-76
2022/04/07 07:40:55;;;;;;;9.55;4.65;;;12.10;99.90;;;;;;4991314;28;20106;-78
2022/04/07 07:43:21;;;;;;;12.32;4.18;;;12.10;99.90;;;;;;4988592;28;20045;-78
2022/04/07 07:45:50;;;;;;;9.70;4.63;;;12.10;99.90;;;;;;4989705;28;20018;-79
2022/04/07 07:48:29;;;;;;;12.73;5.03;;;12.20;99.90;;;;;;5004671;28;20050;-75
2022/04/07 07:50:57;;;;;;;9.68;3.65;;;12.30;99.90;;;;;;4996271;28;20022;-78
2022/04/07 07:53:23;;;;;;;6.38;3.08;;;12.40;99.90;;;;;;5016532;28;20022;-77
2022/04/07 07:55:49;;;;;;;13.73;4.70;;;12.50;99.90;;;;;;5011045;28;20056;-78
2022/04/07 07:58:15;;;;;;;7.97;4.30;;;12.50;99.90;;;;;;5027678;28;20068;-77
2022/04/07 08:00:42;;;;;;;8.48;4.38;;;12.50;99.90;;;;;;5009367;28;20052;-76
2022/04/07 08:03:11;;;;;;;12.35;5.43;;;12.60;99.90;;;;;;5009393;28;20065;-78
2022/04/07 08:05:37;;;;;;;14.20;5.75;;;12.80;99.90;;;;;;5025510;28;20049;-79
2022/04/07 08:08:04;;;;;;;17.70;5.40;;;12.90;99.90;;;;;;5022372;28;20480;-77
2022/04/07 08:10:30;;;;;;;9.00;3.75;;;12.90;99.90;;;;;;5009745;28;20375;-79
2022/04/07 08:12:56;;;;;;;10.23;3.58;;;12.90;99.90;;;;;;5010594;28;20030;-80
2022/04/07 08:15:24;;;;;;;14.02;5.95;;;12.90;99.90;;;;;;5007821;28;20480;-77
2022/04/07 08:17:50;;;;;;;7.47;4.20;;;13.20;99.90;;;;;;5007539;28;20028;-79
2022/04/07 08:20:17;;;;;;;11.70;4.82;;;13.30;99.90;;;;;;4995212;28;20026;-79
2022/04/07 08:22:49;;;;;;;7.75;4.07;;;13.10;99.90;;;;;;5010396;28;20431;-80
2022/04/07 08:25:18;;;;;;;9.88;4.25;;;13.00;99.90;;;;;;5009889;28;20037;-79
2022/04/07 08:27:45;;;;;;;24.00;5.82;;;13.10;99.90;;;;;;5012391;28;20026;-78
2022/04/07 08:30:11;;;;;;;10.43;4.22;;;13.30;99.90;;;;;;5010118;28;20431;-78
2022/04/07 08:32:37;;;;;;;9.52;3.47;;;13.40;99.90;;;;;;5010352;28;20037;-77
2022/04/07 08:35:09;;;;;;;9.68;3.65;;;13.40;99.90;;;;;;5010181;28;20022;-78
2022/04/07 08:37:36;;;;;;;5.72;2.97;;;13.30;99.90;;;;;;4992727;28;20065;-78
2022/04/07 08:40:13;;;;;;;7.90;3.50;;;13.30;99.90;;;;;;5010130;28;20084;-78
2022/04/07 08:42:42;;;;;;;8.60;2.80;;;13.40;99.90;;;;;;5012804;28;20030;-78
2022/04/07 08:45:13;;;;;;;9.27;3.38;;;13.40;99.90;;;;;;5014435;28;20030;-76
2022/04/07 08:47:40;;;;;;;5.25;2.67;;;13.60;99.90;;;;;;4996366;28;20046;-79
2022/04/07 08:50:07;;;;;;;7.82;2.33;;;13.80;99.90;;;;;;5014828;28;20030;-78
2022/04/07 08:52:35;;;;;;;9.55;3.65;;;14.00;99.90;;;;;;5013909;28;20028;-78
2022/04/07 08:55:01;;;;;;;5.25;3.13;;;14.10;99.90;;;;;;5013676;28;20040;-77
2022/04/07 08:57:29;;;;;;;6.82;3.38;;;14.30;99.90;;;;;;5013140;28;20022;-76
2022/04/07 08:59:58;;;;;;;19.10;3.67;;;14.60;99.90;;;;;;5013619;28;20034;-78
2022/04/07 09:02:28;;;;;;;8.13;3.45;;;14.60;99.90;;;;;;5012987;28;20033;-79
2022/04/07 09:04:59;;;;;;;12.75;4.05;;;14.60;99.90;;;;;;5014383;28;20056;-76
2022/04/07 09:07:33;;;;;;;6.80;4.13;;;14.50;99.90;;;;;;5014583;28;20101;-78
2022/04/07 09:10:02;;;;;;;14.13;5.75;;;14.20;99.90;;;;;;5014209;28;20084;-75
2022/04/07 09:12:28;;;;;;;10.55;5.40;;;14.10;99.90;;;;;;5014124;28;20113;-78
2022/04/07 09:14:59;;;;;;;11.02;5.10;;;14.00;99.90;;;;;;5014287;28;20214;-78
2022/04/07 09:17:26;;;;;;;12.85;4.97;;;13.90;99.90;;;;;;5013108;28;20480;-78
2022/04/07 09:19:53;;;;;;;11.32;5.03;;;13.70;99.90;;;;;;5017259;28;20488;-77
2022/04/07 09:22:30;;;;;;;11.90;4.72;;;13.60;99.90;;;;;;5013679;28;20022;-77
2022/04/07 09:24:58;;;;;;;11.65;4.82;;;13.40;99.90;;;;;;5014043;28;20515;-78
2022/04/07 09:27:27;;;;;;;14.05;6.22;;;13.20;99.90;;;;;;4995816;28;20192;-78
2022/04/07 09:29:55;;;;;;;17.90;7.38;;;13.30;99.90;;;;;;5016898;28;20383;-78
2022/04/07 09:32:28;;;;;;;18.40;8.40;;;13.10;99.90;;;;;;4996817;28;20076;-75
2022/04/07 09:34:59;;;;;;;15.30;7.45;;;13.10;99.90;;;;;;5013496;28;20084;-69
2022/04/07 09:37:31;;;;;;;10.48;6.22;;;13.10;99.90;;;;;;5013293;28;20041;-68
2022/04/07 09:40:19;;;;;;;11.55;6.22;;;13.20;99.90;;;;;;5012225;28;20038;-78
2022/04/07 09:42:45;;;;;;;16.15;6.63;;;13.30;99.90;;;;;;5013619;28;20026;-73
2022/04/07 09:45:13;;;;;;;14.18;5.38;;;13.40;99.90;;;;;;4996678;28;20072;-77
2022/04/07 09:47:45;;;;;;;9.52;4.55;;;13.50;99.90;;;;;;4996308;28;20049;-76
2022/04/07 09:50:29;;;;;;;13.52;5.43;;;13.70;99.90;;;;;;5017019;28;20033;-76
2022/04/07 09:52:59;;;;;;;10.13;4.60;;;13.80;99.90;;;;;;5012527;28;20030;-77
2022/04/07 09:55:48;;;;;;;10.98;5.68;;;13.90;99.90;;;;;;5015460;28;20026;-78
2022/04/07 09:58:21;;;;;;;13.57;4.45;;;13.80;99.90;;;;;;5012848;28;20084;-78
2022/04/07 10:00:59;;;;;;;12.82;4.80;;;14.00;99.90;;;;;;5011756;28;20030;-78
2022/04/07 10:03:29;;;;;;;10.40;5.18;;;14.00;99.90;;;;;;5013237;28;20101;-75
2022/04/07 10:05:59;;;;;;;9.50;4.95;;;14.00;99.90;;;;;;5012542;28;20042;-76
2022/04/07 10:08:26;;;;;;;14.25;4.40;;;14.30;99.90;;;;;;5012510;28;20113;-78
2022/04/07 10:11:04;;;;;;;15.38;6.28;;;14.30;99.90;;;;;;5012740;28;20439;-77
2022/04/07 10:13:32;;;;;;;8.85;4.55;;;14.40;99.90;;;;;;5011284;28;20061;-75
2022/04/07 10:15:59;;;;;;;8.23;3.95;;;14.30;99.90;;;;;;5012352;28;20022;-74
2022/04/07 10:18:34;;;;;;;12.45;5.25;;;14.40;99.90;;;;;;5012427;28;20540;-78
2022/04/07 10:21:05;;;;;;;13.75;4.65;;;14.50;99.90;;;;;;5012829;28;20097;-78
2022/04/07 10:23:47;;;;;;;11.95;6.07;;;14.50;99.90;;;;;;4994930;28;20037;-78
2022/04/07 10:26:17;;;;;;;12.75;6.22;;;14.50;99.90;;;;;;5012873;28;20530;-77
2022/04/07 10:28:54;;;;;;;16.95;7.15;;;14.40;99.90;;;;;;5011009;28;20030;-78
2022/04/07 10:31:22;;;;;;;10.75;6.40;;;14.50;99.90;;;;;;5012968;28;20113;-76
2022/04/07 10:33:50;;;;;;;12.88;6.60;;;14.50;99.90;;;;;;5013122;28;20022;-78
2022/04/07 10:36:19;;;;;;;14.13;7.03;;;14.30;99.90;;;;;;4994806;28;20026;-78
2022/04/07 10:38:51;;;;;;;12.93;7.10;;;14.20;99.90;;;;;;5019320;28;20053;-78
2022/04/07 10:41:39;;;;;;;11.88;7.00;;;14.20;99.90;;;;;;5016903;28;20327;-78
2022/04/07 10:44:12;;;;;;;18.27;7.65;;;14.20;99.90;;;;;;5013367;28;20538;-79
2022/04/07 10:46:38;;;;;;;14.27;7.43;;;14.30;99.90;;;;;;5010170;28;20107;-77
2022/04/07 10:49:09;;;;;;;15.00;6.88;;;14.30;99.90;;;;;;5011925;28;20519;-77
2022/04/07 10:51:48;;;;;;;12.77;7.80;;;14.30;99.90;;;;;;5011918;28;20026;-78
2022/04/07 10:54:14;;;;;;;13.68;6.70;;;14.20;99.90;;;;;;5012382;28;20555;-78
2022/04/07 10:56:50;;;;;;;11.07;6.55;;;14.10;99.90;;;;;;4994639;28;20061;-75
2022/04/07 10:59:28;;;;;;;12.13;6.13;;;14.00;99.90;;;;;;5012523;28;20037;-77
2022/04/07 11:02:06;;;;;;;12.20;5.90;;;13.90;99.90;;;;;;5012722;28;20037;-77
2022/04/07 11:04:35;;;;;;;10.55;5.10;;;13.80;99.90;;;;;;5010553;28;20790;-76
2022/04/07 11:07:16;;;;;;;15.65;6.68;;;13.90;99.90;;;;;;5010552;28;20234;-77
2022/04/07 11:09:45;;;;;;;15.10;6.20;;;14.00;99.90;;;;;;5011347;28;20545;-72
2022/04/07 11:12:38;;;;;;;12.88;5.57;;;14.00;99.90;;;;;;5011787;28;20048;-75
2022/04/07 11:15:06;;;;;;;16.33;5.07;;;14.00;99.90;;;;;;5011857;28;20037;-76
2022/04/07 11:17:37;;;;;;;7.45;3.53;;;14.20;99.90;;;;;;5011891;28;20399;-76
2022/04/07 11:20:22;;;;;;;7.78;3.92;;;14.10;99.90;;;;;;5011997;28;20042;-78
2022/04/07 11:23:05;;;;;;;7.82;3.70;;;14.40;99.90;;;;;;5009546;28;20045;-74
2022/04/07 11:25:42;;;;;;;11.10;4.05;;;14.60;99.90;;;;;;5011316;28;20034;-76
2022/04/07 11:28:10;;;;;;;7.80;3.53;;;14.80;99.90;;;;;;5010828;28;20432;-75
2022/04/07 11:30:41;;;;;;;5.93;2.97;;;15.10;99.90;;;;;;4993744;28;20030;-77
2022/04/07 11:36:00;;;;;;;6.35;3.78;;;15.30;99.90;;;;;;5011644;28;20061;-76
2022/04/07 11:38:47;;;;;;;7.13;3.45;;;15.40;99.90;;;;;;5010432;28;20041;-78
2022/04/07 11:41:14;;;;;;;7.65;3.63;;;15.30;99.90;;;;;;5009920;28;20052;-76
2022/04/07 11:43:41;;;;;;;7.25;4.07;;;15.00;99.90;;;;;;5011308;28;20038;-76
2022/04/07 11:46:10;;;;;;;13.70;3.72;;;14.80;99.90;;;;;;5011091;28;20033;-73
2022/04/07 11:48:38;;;;;;;7.57;3.00;;;14.60;99.90;;;;;;5003737;28;20042;-76
2022/04/07 11:51:19;;;;;;;8.18;3.88;;;14.60;99.90;;;;;;5008632;28;20026;-78
2022/04/07 11:53:52;;;;;;;8.00;3.63;;;14.60;99.90;;;;;;5010861;28;20468;-76
2022/04/07 11:56:34;;;;;;;10.23;3.78;;;14.80;99.90;;;;;;5011598;28;20032;-75
2022/04/07 11:59:07;;;;;;;9.23;4.22;;;14.90;99.90;;;;;;5010792;28;20121;-73
2022/04/07 12:01:40;;;;;;;8.63;3.50;;;15.00;99.90;;;;;;5009437;28;20021;-77
2022/04/07 12:04:09;;;;;;;6.93;3.20;;;15.30;99.90;;;;;;5011385;28;20092;-77
2022/04/07 12:06:44;;;;;;;6.55;3.38;;;15.50;99.90;;;;;;5010607;28;20033;-75
2022/04/07 12:09:14;;;;;;;6.50;3.08;;;15.60;99.90;;;;;;5009286;28;20483;-78
2022/04/07 12:11:42;;;;;;;9.90;3.97;;;15.80;99.90;;;;;;5011961;28;20038;-75
2022/04/07 12:14:15;;;;;;;7.57;3.45;;;15.90;99.90;;;;;;4993531;28;20446;-75
2022/04/07 12:16:50;;;;;;;10.52;3.65;;;16.00;99.90;;;;;;5010561;28;20032;-76
2022/04/07 12:19:19;;;;;;;5.65;2.63;;;16.00;99.90;;;;;;5009540;28;20120;-76
2022/04/07 12:21:58;;;;;;;10.57;2.78;;;15.90;99.00;;;;;;5009132;28;20117;-76
2022/04/07 12:24:27;;;;;;;5.47;3.08;;;15.70;97.00;;;;;;5009715;28;20033;-74
2022/04/07 12:26:55;;;;;;;7.50;3.80;;;15.80;98.20;;;;;;5010452;28;20022;-75
2022/04/07 12:29:26;;;;;;;7.03;2.92;;;15.70;99.90;;;;;;5010274;28;20116;-72
2022/04/07 12:31:59;;;;;;;7.78;3.05;;;15.50;99.50;;;;;;5009919;28;20120;-76
2022/04/07 12:34:25;;;;;;;8.18;3.17;;;15.50;96.20;;;;;;5010359;28;20048;-76
2022/04/07 12:36:52;;;;;;;4.85;1.98;;;15.50;98.70;;;;;;5010449;28;20109;-77
2022/04/07 12:39:23;;;;;;;6.40;2.10;;;15.50;96.80;;;;;;4993300;28;20038;-76
2022/04/07 12:41:55;;;;;;;7.38;3.05;;;15.40;96.80;;;;;;4994070;28;20391;-76
2022/04/07 12:44:27;;;;;;;9.67;3.23;;;15.50;99.90;;;;;;5010404;28;20034;-76
2022/04/07 12:47:06;;;;;;;7.15;3.33;;;15.70;96.40;;;;;;5009331;28;20045;-76
2022/04/07 12:49:54;;;;;;;9.20;3.88;;;15.90;97.20;;;;;;5008961;28;20044;-76
2022/04/07 12:52:41;;;;;;;4.00;1.90;;;15.80;94.80;;;;;;5008712;28;20038;-74